Video: Se inunda el Aeropuerto Internacional de la Ciudad de México

Las lluvias registradas la tarde de este miércoles en la Ciudad de México provocó que el Aeropuerto Internacional Benito Juárez (AICM) cerrara sus operaciones por una inundación severa que afecto gran parte de la ta terminal.

A través de redes sociales el Aeropuerto Internacional de la Ciudad de México informó que, por las condiciones meteorológicas imperantes en la zona, se suspendían temporalmente las operaciones de aterrizaje y despegue.

Nuestro reportero en la Ciudad de México nos informa que será hasta las 00:00 horas (05:00 UTC) cuando se reabran las operaciones del aeropuerto.

El último reporte METAR es: MMMX 310156Z 29003KT 2SM -A HZ SCT005 BKN015CB OVC080 14/13 A3034 NOSIG RMK 60095 8/96 /

  • author's avatar

    Por: Roberto Mtz Armendáriz

    Oficial de Operaciones de Aeronaves | Locutor | Productor de Radio | Periodista independiente.

    “Normalmente cuando la realidad y la fantasía se encuentran suele ser decepcionante, pero hay otros momentos en que la fantasía está rodeada de un deseo tan grande que es la realidad la que se torna fantástica”. WRZ.

    Ciudad: Ciudad de México.

  • author's avatar

Deja tu comentario.

También te podría gustar...

PHP Code Snippets Powered By : XYZScripts.com